N7615L – Lake Isabella Accident

Incident Type

Accident

Investigation Status

Member Reports Received

Membership Status

Suspended

NTSB Number

Synopsis

On Tuesday, 3 August 2021, the Commercially rated pilot departed Whiteman Airport (WHP) for Lake Isabella to perform some water landings.  The pilot received his airplane single-engine sea rating one week prior on 27 July 2021 and had fewer than 20 hours in the accident aircraft.  The pilot stated that he was “unable to takeoff from the water” at which point he decided to taxi up a boat ramp on the southeast side of the lake.  The pilot stated that he attempted to “takeoff from the boat ramp” since he was unable to takeoff from the water.

As of August 4th, Lake Isabella is located at 2,534′ elevation, down 10′ from a high of 2,545′ on May 23rd.  The lower lake level exposed the cottonwood trees that litter the bottom of Lake Isabella and were not completely removed when the lake was flooded.  On the day of the accident, the temperature was 40C (104F) and the pressure was 29.80 with a density altitude of 5,970′ at the time of the accident.

The closest reporting METAR is KTSP at ~30NM.

KTSP 032215Z AUTO 31016G22KT 10SM CLR 34/05 A3013 RMK AO2

METAR KBFL 032154Z 29008KT 7SM CLR 36/07 A2990 RMK AO2 SLP118 T03610072

A weather station 3NM away reported 40C (104.5F) and 29.80 at the time of the accident with wind from the west at 10-15MPH.

The Lake Aircraft owners manual only specifies a takeoff performance for the LA4/200 (200HP model).  The performance listed is 650’ for takeoff from a dry, paved surface at sea level on a standard day.  Extrapolating the takeoff distance using an accepted ‘rule of thumb’ of an additional 15% for each 1,000’ of density altitude would require 1,527’ for takeoff.  The measured distance of the boat ramp the pilot attempted a takeoff from is 237’.

Damage Photos

LOCATION

tAIL NUMBER

N7615L

Pilot Certificate

Commercial

Total Time

1440 Hours

Time in MAke/Model

TIME in last 30 days

Approximate Damage

$ 50000

METAR Data (If Available)

Pilot Report

Unable to take off from the water, I took off from a boat ramp. Initial lift off and climb were normal. Then I was unable to maintain altitude and landed on the water. I exited the cockpit and a good samaritan on a Sea Doo gave me a ride to shore.

Passenger/Witness Report

Additional Information

NTSB Report

Coming Soon

Eyewitness Video

Board Files (Password Required)

Additional Narrative

VIDEO

Reinstatement Recommendation - Member

Member Name:

Michael Freed

Reinstatement Vote - Member

Reinstatement Recommendation - Instructor

Instructor Name:

Reinstatement Vote - Instructor

Exit to Owner Website

NOTE:  You are leaving the Plus One Flyers website.  Any information presented on external websites, especially relating to pilot requirements and checkouts may not be accurate.  Confirm with a club officer or the Operational Rules for official guidance.

Scroll to Top